• Join FlightAware (Why Join?)
  • Login
  • US Flag 
01:11PM EDT


 

Airport Tracker/Info


-or-


 

Live Flight TrackerFlight Track Log ✈ N589H ✈ 29-Mar-2014 ✈ KCLT - KPIE

Flight Track Log - Related Links

Times and Time Zones

All times are in EDT time to prevent confusion due to time zone crossing. See the N589H flight status page for this flight to view local times or setup timezone preferences in your user account.

Time Position Orientation Groundspeed Altitude Reporting Facility
EDT Latitude Longitude Course Direction KTS MPH feet Rate Location/Type
01:53AM 35.1922 -80.9347 205° Southwest 166 191 1,100  Level Atlanta Center
01:54AM 35.1589 -80.9331 178° South 172 198 2,400 1,620 Climbing Atlanta Center
01:55AM 35.1272 -80.9331 180° South 178 205 3,400 1,560 Climbing Atlanta Center
01:55AM 35.1083 -80.9342 183° South 189 217 4,000 1,920 Climbing Atlanta Center
01:56AM 35.0747 -80.9500 201° Southwest 191 220 5,400 2,400 Climbing Atlanta Center
01:56AM 35.0539 -80.9578 197° South 194 223 6,400 2,100 Climbing Atlanta Center
01:57AM 35.0228 -80.9694 197° South 195 224 7,500 1,920 Climbing Atlanta Center
01:57AM 34.9997 -80.9764 194° South 197 227 8,400 1,860 Climbing Atlanta Center
01:58AM 34.9703 -80.9878 198° South 195 224 9,400 1,620 Climbing Atlanta Center
01:58AM 34.9456 -80.9975 198° South 207 238 10,100 1,800 Climbing Atlanta Center
01:59AM 33.7463 -80.8038 205° Southwest  Level FlightAware Approximate
01:59AM 34.9128 -81.0092 196° South 209 241 11,200  Level Atlanta Center
02:00AM 34.8528 -81.0308 197° South 219 252 13,000 1,560 Climbing Atlanta Center
02:01AM 34.7917 -81.0500 194° South 224 258 14,400 1,380 Climbing Atlanta Center
02:02AM 34.7275 -81.0761 198° South 239 275 15,800 1,320 Climbing Atlanta Center
02:03AM 34.6628 -81.1036 199° South 246 283 17,100 1,140 Climbing Atlanta Center
02:04AM 34.6050 -81.1519 215° Southwest 250 288 18,100 1,020 Climbing Atlanta Center
02:05AM 34.5617 -81.2211 233° Southwest 255 293 19,200 1,200 Climbing Atlanta Center
02:06AM 34.4939 -81.2575 204° Southwest 261 300 20,600 1,320 Climbing Atlanta Center
02:07AM 34.4258 -81.2839 198° South 259 298 21,900 1,320 Climbing Atlanta Center
02:08AM 34.3461 -81.3003 190° South 254 292 23,300 1,140 Climbing Atlanta Center
02:09AM 34.2725 -81.3031 182° South 260 299 24,200 900 Climbing Atlanta Center
02:10AM 34.1903 -81.2875 171° South 294 338 25,200 840 Climbing Atlanta Center
02:11AM 34.1144 -81.3119 195° South 283 326 26,000 360 Climbing Atlanta Center
02:12AM 34.0306 -81.3300 190° South 301 346 26,000  Level Atlanta Center
02:13AM 33.9106 -81.3611 192° South 317 365 26,000  Level Jacksonville Center
02:14AM 33.8211 -81.3853 193° South 328 377 26,000  Level Jacksonville Center
02:15AM 33.7294 -81.4067 191° South 333 383 26,000  Level Jacksonville Center
02:16AM 33.6381 -81.4256 190° South 333 383 26,000  Level Jacksonville Center
02:17AM 33.5506 -81.4469 192° South 333 383 26,000  Level Jacksonville Center
02:18AM 33.4569 -81.4686 191° South 333 383 26,000  Level Jacksonville Center
02:19AM 33.3675 -81.4897 191° South 333 383 26,000  Level Jacksonville Center
02:20AM 33.2758 -81.5111 191° South 338 389 26,000  Level Jacksonville Center
02:21AM 33.1925 -81.5322 192° South 338 389 26,000  Level Jacksonville Center
02:22AM 33.0989 -81.5511 190° South 338 389 26,000  Level Jacksonville Center
02:23AM 33.0092 -81.5722 191° South 338 389 26,000  Level Jacksonville Center
02:24AM 32.9072 -81.5986 192° South 338 389 26,000  Level Jacksonville Center
02:25AM 32.8178 -81.6172 190° South 338 389 26,000  Level Jacksonville Center
02:26AM 32.7261 -81.6381 191° South 338 389 26,000  Level Jacksonville Center
02:27AM 32.6469 -81.6564 191° South 327 376 26,000  Level Jacksonville Center
02:28AM 32.5511 -81.6800 192° South 327 376 26,000  Level Jacksonville Center
02:29AM 32.4700 -81.6983 191° South 333 383 26,000  Level Jacksonville Center
02:30AM 32.3719 -81.7217 191° South 333 383 26,000  Level Jacksonville Center
02:31AM 32.2844 -81.7400 190° South 333 383 26,000  Level Jacksonville Center
02:32AM 32.2033 -81.7583 191° South 333 383 26,000  Level Jacksonville Center
02:33AM 32.1053 -81.7814 191° South 333 383 26,000  Level Jacksonville Center
02:34AM 32.0219 -81.7997 191° South 333 383 26,000  Level Jacksonville Center
02:35AM 31.9239 -81.8206 190° South 333 383 26,000  Level Jacksonville Center
02:36AM 31.8344 -81.8411 191° South 333 383 26,000  Level Jacksonville Center
02:37AM 31.7531 -81.8592 191° South 333 383 26,000  Level Jacksonville Center
02:38AM 31.6572 -81.8797 190° South 332 382 26,000  Level Jacksonville Center
02:39AM 31.5758 -81.9000 192° South 332 382 26,000  Level Jacksonville Center
02:40AM 31.4758 -81.9231 191° South 337 388 26,000  Level Jacksonville Center
02:41AM 31.3883 -81.9433 191° South 332 382 26,000  Level Jacksonville Center
02:42AM 31.2986 -81.9614 190° South 337 388 26,000  Level Jacksonville Center
02:43AM 31.2092 -81.9842 192° South 330 380 26,000  Level Jacksonville Center
02:44AM 31.1217 -82.0019 190° South 325 374 26,000  Level Jacksonville Center
02:45AM 31.0339 -82.0222 191° South 325 374 26,000  Level Jacksonville Center
02:46AM 30.9486 -82.0400 190° South 325 374 26,000  Level Jacksonville Center
02:47AM 30.8608 -82.0600 191° South 325 374 26,000  Level Jacksonville Center
02:48AM 30.7756 -82.0800 191° South 325 374 26,000  Level Jacksonville Center
02:49AM 30.6878 -82.0978 190° South 325 374 26,000  Level Jacksonville Center
02:50AM 30.6086 -82.1131 189° South 320 368 26,000  Level Jacksonville Center
02:51AM 30.5128 -82.1331 190° South 315 362 26,000  Level Jacksonville Center
02:52AM 30.4253 -82.1531 191° South 315 362 26,000  Level Jacksonville Center
02:53AM 30.3375 -82.1728 191° South 320 368 26,000  Level Jacksonville Center
02:54AM 30.2478 -82.1906 190° South 327 376 26,000  Level Jacksonville Center
02:55AM 30.1583 -82.2078 189° South 327 376 26,000 -60 Level Jacksonville Center
02:56AM 30.0706 -82.2372 196° South 329 379 25,900  Descending Jacksonville Center
02:57AM 29.9914 -82.2594 194° South 329 379 26,000  Climbing Jacksonville Center
02:58AM 29.9039 -82.2839 194° South 329 379 26,000  Level Jacksonville Center
02:59AM 29.8164 -82.3108 195° South 329 379 26,000  Level Jacksonville Center
03:00AM 29.7161 -82.3331 191° South 329 379 26,000  Level Jacksonville Center
03:01AM 29.6286 -82.3575 194° South 334 384 26,000 -60 Level Jacksonville Center
03:02AM 29.5389 -82.3817 193° South 334 384 25,900 -600 Descending Jacksonville Center
03:03AM 29.4575 -82.4036 193° South 334 384 24,800 -1,320 Descending Jacksonville Center
03:04AM 29.3639 -82.4281 193° South 340 391 23,300 -1,500 Descending Jacksonville Center
03:05AM 29.2742 -82.4522 193° South 340 391 21,800 -1,500 Descending Jacksonville Center
03:06AM 29.1844 -82.4764 193° South 334 384 20,300 -1,500 Descending Jacksonville Center
03:07AM 29.0989 -82.5028 195° South 334 384 18,800 -1,500 Descending Jacksonville Center
03:08AM 29.0156 -82.5269 194° South 328 377 17,400 -1,620 Descending Jacksonville Center
03:09AM 28.9319 -82.5439 190° South 316 364 15,600 -2,100 Descending Jacksonville Center
03:11AM 28.7667 -82.5833 192° South 270 311 11,200 -1,560 Descending Tampa TRACON
03:12AM 28.7000 -82.6000 192° South 255 293 11,000 -120 Descending Tampa TRACON
03:13AM 28.6333 -82.6333 204° Southwest 276 318 11,000 -480 Level Tampa TRACON
03:14AM 28.5500 -82.6500 190° South 263 303 10,100 -1,080 Descending Tampa TRACON
03:15AM 28.4833 -82.6667 192° South 256 295 8,900 -1,260 Descending Tampa TRACON
03:16AM 28.4167 -82.6833 192° South 259 298 7,600 -1,080 Descending Tampa TRACON
03:17AM 28.3500 -82.7000 192° South 262 302 6,800 -1,080 Descending Tampa TRACON
03:18AM 28.2833 -82.7167 192° South 247 284 5,500 -1,320 Descending Tampa TRACON
03:19AM 28.2167 -82.7333 192° South 232 267 4,200 -1,260 Descending Tampa TRACON
03:20AM 28.1500 -82.7333 180° South 236 272 3,000 -1,200 Descending Tampa TRACON